< < Back
Terminal Aerodrome Forecast


Current Version              Previous Versions:   1  2  3  4  5  6  7  8  9  

Terminal Aerodrome Forecast

409
FTUS42 KGSP 281700
TAFCLT
TAF
KCLT 281724Z 2818/2918 29011G21KT P6SM SCT060
     FM282100 30012G18KT P6SM FEW060
     FM290000 32008KT P6SM FEW250
     FM290800 01004KT P6SM SCT250=



Latest METAR

293
SAUS70 KWBC 290600
MTRCLT
METAR KCLT 290552Z 34008KT 10SM BKN100 22/12 A2992 RMK AO2 SLP120
T02170122 10267 20217 58001


USA.gov is the U.S. government's official web portal to all federal, state and local government web resources and services.